sensor_id;sensor_type;location;lat;lon;timestamp;P1;durP1;ratioP1;P2;durP2;ratioP2
10661;SDS011;5379;51.034;7.006;2022-07-06T00:01:20;4.00;;;1.37;;
10661;SDS011;5379;51.034;7.006;2022-07-06T00:03:47;1.47;;;1.37;;
10661;SDS011;5379;51.034;7.006;2022-07-06T00:06:15;1.50;;;1.33;;
10661;SDS011;5379;51.034;7.006;2022-07-06T00:08:43;5.00;;;1.93;;
10661;SDS011;5379;51.034;7.006;2022-07-06T00:11:10;1.80;;;1.43;;
10661;SDS011;5379;51.034;7.006;2022-07-06T00:13:38;5.10;;;1.63;;
10661;SDS011;5379;51.034;7.006;2022-07-06T00:16:06;4.40;;;2.00;;
10661;SDS011;5379;51.034;7.006;2022-07-06T00:18:33;2.33;;;1.67;;
10661;SDS011;5379;51.034;7.006;2022-07-06T00:21:00;2.87;;;1.20;;
10661;SDS011;5379;51.034;7.006;2022-07-06T00:23:28;1.93;;;1.70;;
10661;SDS011;5379;51.034;7.006;2022-07-06T00:25:56;3.33;;;1.53;;
10661;SDS011;5379;51.034;7.006;2022-07-06T00:28:23;1.73;;;1.50;;
10661;SDS011;5379;51.034;7.006;2022-07-06T00:30:50;5.77;;;1.70;;
10661;SDS011;5379;51.034;7.006;2022-07-06T00:33:18;9.00;;;1.60;;
10661;SDS011;5379;51.034;7.006;2022-07-06T00:35:45;4.43;;;1.87;;
10661;SDS011;5379;51.034;7.006;2022-07-06T00:38:12;1.60;;;1.50;;
10661;SDS011;5379;51.034;7.006;2022-07-06T00:40:40;1.60;;;1.50;;
10661;SDS011;5379;51.034;7.006;2022-07-06T00:43:07;1.50;;;1.50;;
10661;SDS011;5379;51.034;7.006;2022-07-06T00:45:34;1.50;;;1.40;;
10661;SDS011;5379;51.034;7.006;2022-07-06T00:48:02;2.67;;;1.40;;
10661;SDS011;5379;51.034;7.006;2022-07-06T00:50:29;2.97;;;1.87;;
10661;SDS011;5379;51.034;7.006;2022-07-06T00:52:59;2.43;;;1.67;;
10661;SDS011;5379;51.034;7.006;2022-07-06T00:55:27;1.70;;;1.40;;
10661;SDS011;5379;51.034;7.006;2022-07-06T00:57:57;2.47;;;1.73;;
10661;SDS011;5379;51.034;7.006;2022-07-06T01:00:27;2.30;;;1.30;;
10661;SDS011;5379;51.034;7.006;2022-07-06T01:02:54;1.20;;;1.17;;
10661;SDS011;5379;51.034;7.006;2022-07-06T01:05:22;2.60;;;1.50;;
10661;SDS011;5379;51.034;7.006;2022-07-06T01:07:50;1.17;;;1.13;;
10661;SDS011;5379;51.034;7.006;2022-07-06T01:10:18;1.67;;;1.33;;
10661;SDS011;5379;51.034;7.006;2022-07-06T01:12:46;4.23;;;1.70;;
10661;SDS011;5379;51.034;7.006;2022-07-06T01:15:16;2.07;;;1.40;;
10661;SDS011;5379;51.034;7.006;2022-07-06T01:17:45;1.83;;;1.33;;
10661;SDS011;5379;51.034;7.006;2022-07-06T01:20:15;2.63;;;1.50;;
10661;SDS011;5379;51.034;7.006;2022-07-06T01:22:43;1.50;;;1.40;;
10661;SDS011;5379;51.034;7.006;2022-07-06T01:25:10;3.23;;;1.87;;
10661;SDS011;5379;51.034;7.006;2022-07-06T01:27:38;2.67;;;1.30;;
10661;SDS011;5379;51.034;7.006;2022-07-06T01:30:07;1.40;;;1.20;;
10661;SDS011;5379;51.034;7.006;2022-07-06T01:32:36;5.17;;;1.70;;
10661;SDS011;5379;51.034;7.006;2022-07-06T01:35:04;1.97;;;1.60;;
10661;SDS011;5379;51.034;7.006;2022-07-06T01:37:34;6.03;;;1.40;;
10661;SDS011;5379;51.034;7.006;2022-07-06T01:40:02;2.70;;;1.63;;
10661;SDS011;5379;51.034;7.006;2022-07-06T01:42:31;4.17;;;1.40;;
10661;SDS011;5379;51.034;7.006;2022-07-06T01:44:58;2.43;;;1.60;;
10661;SDS011;5379;51.034;7.006;2022-07-06T01:47:25;2.03;;;1.40;;
10661;SDS011;5379;51.034;7.006;2022-07-06T01:49:52;2.67;;;1.63;;
10661;SDS011;5379;51.034;7.006;2022-07-06T01:52:19;1.57;;;1.47;;
10661;SDS011;5379;51.034;7.006;2022-07-06T01:54:47;1.40;;;1.30;;
10661;SDS011;5379;51.034;7.006;2022-07-06T01:57:15;3.80;;;1.50;;
10661;SDS011;5379;51.034;7.006;2022-07-06T01:59:42;1.63;;;1.37;;
10661;SDS011;5379;51.034;7.006;2022-07-06T02:02:09;1.87;;;1.70;;
10661;SDS011;5379;51.034;7.006;2022-07-06T02:04:36;3.70;;;1.57;;
10661;SDS011;5379;51.034;7.006;2022-07-06T02:07:03;1.50;;;1.40;;
10661;SDS011;5379;51.034;7.006;2022-07-06T02:09:30;1.20;;;1.20;;
10661;SDS011;5379;51.034;7.006;2022-07-06T02:11:59;5.23;;;1.63;;
10661;SDS011;5379;51.034;7.006;2022-07-06T02:14:26;2.53;;;1.43;;
10661;SDS011;5379;51.034;7.006;2022-07-06T02:16:53;1.40;;;1.30;;
10661;SDS011;5379;51.034;7.006;2022-07-06T02:19:20;9.27;;;1.80;;
10661;SDS011;5379;51.034;7.006;2022-07-06T02:21:47;1.77;;;1.60;;
10661;SDS011;5379;51.034;7.006;2022-07-06T02:24:14;2.10;;;1.30;;
10661;SDS011;5379;51.034;7.006;2022-07-06T02:26:41;1.63;;;1.47;;
10661;SDS011;5379;51.034;7.006;2022-07-06T02:29:09;1.83;;;1.60;;
10661;SDS011;5379;51.034;7.006;2022-07-06T02:31:37;1.50;;;1.40;;
10661;SDS011;5379;51.034;7.006;2022-07-06T02:34:04;2.33;;;1.53;;
10661;SDS011;5379;51.034;7.006;2022-07-06T02:36:31;5.47;;;1.83;;
10661;SDS011;5379;51.034;7.006;2022-07-06T02:38:58;2.47;;;1.70;;
10661;SDS011;5379;51.034;7.006;2022-07-06T02:41:25;2.00;;;1.90;;
10661;SDS011;5379;51.034;7.006;2022-07-06T02:43:52;2.17;;;1.70;;
10661;SDS011;5379;51.034;7.006;2022-07-06T02:46:20;5.17;;;2.83;;
10661;SDS011;5379;51.034;7.006;2022-07-06T02:48:48;2.87;;;2.10;;
10661;SDS011;5379;51.034;7.006;2022-07-06T02:51:15;2.73;;;2.20;;
10661;SDS011;5379;51.034;7.006;2022-07-06T02:53:42;3.57;;;2.03;;
10661;SDS011;5379;51.034;7.006;2022-07-06T02:56:09;3.50;;;2.20;;
10661;SDS011;5379;51.034;7.006;2022-07-06T02:58:36;3.40;;;2.10;;
10661;SDS011;5379;51.034;7.006;2022-07-06T03:01:03;3.97;;;1.70;;
10661;SDS011;5379;51.034;7.006;2022-07-06T03:03:32;2.40;;;2.13;;
10661;SDS011;5379;51.034;7.006;2022-07-06T03:05:59;2.60;;;2.37;;
10661;SDS011;5379;51.034;7.006;2022-07-06T03:08:26;4.53;;;2.00;;
10661;SDS011;5379;51.034;7.006;2022-07-06T03:10:53;4.30;;;2.43;;
10661;SDS011;5379;51.034;7.006;2022-07-06T03:13:20;3.93;;;2.10;;
10661;SDS011;5379;51.034;7.006;2022-07-06T03:15:47;2.30;;;2.10;;
10661;SDS011;5379;51.034;7.006;2022-07-06T03:18:14;7.50;;;2.23;;
10661;SDS011;5379;51.034;7.006;2022-07-06T03:20:42;5.43;;;2.33;;
10661;SDS011;5379;51.034;7.006;2022-07-06T03:23:10;3.80;;;2.53;;
10661;SDS011;5379;51.034;7.006;2022-07-06T03:25:37;4.47;;;2.40;;
10661;SDS011;5379;51.034;7.006;2022-07-06T03:28:04;2.80;;;2.47;;
10661;SDS011;5379;51.034;7.006;2022-07-06T03:30:31;2.43;;;2.23;;
10661;SDS011;5379;51.034;7.006;2022-07-06T03:32:58;2.50;;;2.23;;
10661;SDS011;5379;51.034;7.006;2022-07-06T03:35:25;2.10;;;2.00;;
10661;SDS011;5379;51.034;7.006;2022-07-06T03:37:53;2.13;;;2.00;;
10661;SDS011;5379;51.034;7.006;2022-07-06T03:40:20;2.20;;;2.00;;
10661;SDS011;5379;51.034;7.006;2022-07-06T03:42:47;4.77;;;2.43;;
10661;SDS011;5379;51.034;7.006;2022-07-06T03:45:14;2.40;;;2.20;;
10661;SDS011;5379;51.034;7.006;2022-07-06T03:47:42;2.33;;;2.13;;
10661;SDS011;5379;51.034;7.006;2022-07-06T03:50:09;4.87;;;2.40;;
10661;SDS011;5379;51.034;7.006;2022-07-06T03:52:36;2.07;;;1.97;;
10661;SDS011;5379;51.034;7.006;2022-07-06T03:55:07;3.63;;;2.00;;
10661;SDS011;5379;51.034;7.006;2022-07-06T03:57:36;3.60;;;2.30;;
10661;SDS011;5379;51.034;7.006;2022-07-06T04:00:04;6.97;;;2.40;;
10661;SDS011;5379;51.034;7.006;2022-07-06T04:02:33;2.37;;;1.97;;
10661;SDS011;5379;51.034;7.006;2022-07-06T04:05:00;2.33;;;1.90;;
10661;SDS011;5379;51.034;7.006;2022-07-06T04:07:27;7.60;;;2.57;;
10661;SDS011;5379;51.034;7.006;2022-07-06T04:09:54;3.30;;;2.27;;
10661;SDS011;5379;51.034;7.006;2022-07-06T04:12:22;4.30;;;2.03;;
10661;SDS011;5379;51.034;7.006;2022-07-06T04:14:49;2.10;;;2.00;;
10661;SDS011;5379;51.034;7.006;2022-07-06T04:17:16;3.93;;;2.70;;
10661;SDS011;5379;51.034;7.006;2022-07-06T04:20:01;2.67;;;2.47;;
10661;SDS011;5379;51.034;7.006;2022-07-06T04:22:28;3.57;;;2.57;;
10661;SDS011;5379;51.034;7.006;2022-07-06T04:24:55;3.40;;;2.43;;
10661;SDS011;5379;51.034;7.006;2022-07-06T04:27:24;4.67;;;2.77;;
10661;SDS011;5379;51.034;7.006;2022-07-06T04:29:52;4.03;;;2.23;;
10661;SDS011;5379;51.034;7.006;2022-07-06T04:32:19;6.30;;;2.53;;
10661;SDS011;5379;51.034;7.006;2022-07-06T04:34:46;4.63;;;2.23;;
10661;SDS011;5379;51.034;7.006;2022-07-06T04:37:13;2.57;;;2.37;;
10661;SDS011;5379;51.034;7.006;2022-07-06T04:39:40;2.83;;;2.50;;
10661;SDS011;5379;51.034;7.006;2022-07-06T04:42:08;5.03;;;2.60;;
10661;SDS011;5379;51.034;7.006;2022-07-06T04:44:36;6.93;;;2.33;;
10661;SDS011;5379;51.034;7.006;2022-07-06T04:47:03;5.23;;;2.73;;
10661;SDS011;5379;51.034;7.006;2022-07-06T04:49:30;3.30;;;2.50;;
10661;SDS011;5379;51.034;7.006;2022-07-06T04:51:58;3.90;;;2.60;;
10661;SDS011;5379;51.034;7.006;2022-07-06T04:54:25;6.80;;;2.50;;
10661;SDS011;5379;51.034;7.006;2022-07-06T04:56:52;2.63;;;2.43;;
10661;SDS011;5379;51.034;7.006;2022-07-06T04:59:19;3.33;;;2.40;;
10661;SDS011;5379;51.034;7.006;2022-07-06T05:01:47;2.27;;;2.10;;
10661;SDS011;5379;51.034;7.006;2022-07-06T05:04:14;2.57;;;2.37;;
10661;SDS011;5379;51.034;7.006;2022-07-06T05:06:43;3.63;;;2.50;;
10661;SDS011;5379;51.034;7.006;2022-07-06T05:09:11;2.77;;;2.57;;
10661;SDS011;5379;51.034;7.006;2022-07-06T05:11:38;2.80;;;2.50;;
10661;SDS011;5379;51.034;7.006;2022-07-06T05:14:05;4.13;;;3.17;;
10661;SDS011;5379;51.034;7.006;2022-07-06T05:16:33;4.37;;;3.00;;
10661;SDS011;5379;51.034;7.006;2022-07-06T05:19:01;4.67;;;2.83;;
10661;SDS011;5379;51.034;7.006;2022-07-06T05:21:28;6.10;;;2.97;;
10661;SDS011;5379;51.034;7.006;2022-07-06T05:23:55;6.00;;;2.77;;
10661;SDS011;5379;51.034;7.006;2022-07-06T05:26:22;3.07;;;2.77;;
10661;SDS011;5379;51.034;7.006;2022-07-06T05:28:49;4.03;;;2.73;;
10661;SDS011;5379;51.034;7.006;2022-07-06T05:31:16;6.33;;;2.77;;
10661;SDS011;5379;51.034;7.006;2022-07-06T05:33:43;10.57;;;3.43;;
10661;SDS011;5379;51.034;7.006;2022-07-06T05:36:12;4.53;;;3.10;;
10661;SDS011;5379;51.034;7.006;2022-07-06T05:38:39;6.33;;;3.27;;
10661;SDS011;5379;51.034;7.006;2022-07-06T05:41:06;5.30;;;2.93;;
10661;SDS011;5379;51.034;7.006;2022-07-06T05:43:34;5.70;;;2.67;;
10661;SDS011;5379;51.034;7.006;2022-07-06T05:46:02;10.70;;;3.00;;
10661;SDS011;5379;51.034;7.006;2022-07-06T05:48:29;3.60;;;2.60;;
10661;SDS011;5379;51.034;7.006;2022-07-06T05:51:11;3.37;;;2.73;;
10661;SDS011;5379;51.034;7.006;2022-07-06T05:53:38;5.40;;;3.07;;
10661;SDS011;5379;51.034;7.006;2022-07-06T05:56:05;8.50;;;2.90;;
10661;SDS011;5379;51.034;7.006;2022-07-06T05:58:32;4.53;;;2.90;;
10661;SDS011;5379;51.034;7.006;2022-07-06T06:00:59;3.67;;;3.00;;
10661;SDS011;5379;51.034;7.006;2022-07-06T06:03:26;5.43;;;3.03;;
10661;SDS011;5379;51.034;7.006;2022-07-06T06:05:53;4.47;;;2.77;;
10661;SDS011;5379;51.034;7.006;2022-07-06T06:08:22;3.13;;;2.60;;
10661;SDS011;5379;51.034;7.006;2022-07-06T06:10:49;5.30;;;2.63;;
10661;SDS011;5379;51.034;7.006;2022-07-06T06:13:16;4.13;;;2.23;;
10661;SDS011;5379;51.034;7.006;2022-07-06T06:15:43;4.57;;;2.63;;
10661;SDS011;5379;51.034;7.006;2022-07-06T06:18:10;4.80;;;2.57;;
10661;SDS011;5379;51.034;7.006;2022-07-06T06:20:37;4.83;;;2.40;;
10661;SDS011;5379;51.034;7.006;2022-07-06T06:23:04;2.30;;;2.00;;
10661;SDS011;5379;51.034;7.006;2022-07-06T06:25:34;2.50;;;2.10;;
10661;SDS011;5379;51.034;7.006;2022-07-06T06:28:03;3.33;;;1.77;;
10661;SDS011;5379;51.034;7.006;2022-07-06T06:30:31;4.97;;;2.13;;
10661;SDS011;5379;51.034;7.006;2022-07-06T06:33:08;4.17;;;2.50;;
10661;SDS011;5379;51.034;7.006;2022-07-06T06:35:37;2.13;;;1.93;;
10661;SDS011;5379;51.034;7.006;2022-07-06T06:38:04;7.13;;;2.10;;
10661;SDS011;5379;51.034;7.006;2022-07-06T06:40:31;1.87;;;1.77;;
10661;SDS011;5379;51.034;7.006;2022-07-06T06:43:00;9.03;;;2.43;;
10661;SDS011;5379;51.034;7.006;2022-07-06T06:45:27;6.20;;;2.43;;
10661;SDS011;5379;51.034;7.006;2022-07-06T06:47:54;3.97;;;2.17;;
10661;SDS011;5379;51.034;7.006;2022-07-06T06:50:22;2.43;;;2.23;;
10661;SDS011;5379;51.034;7.006;2022-07-06T06:52:49;8.40;;;2.63;;
10661;SDS011;5379;51.034;7.006;2022-07-06T06:55:16;2.07;;;1.87;;
10661;SDS011;5379;51.034;7.006;2022-07-06T06:57:44;4.43;;;2.00;;
10661;SDS011;5379;51.034;7.006;2022-07-06T07:00:12;3.00;;;2.33;;
10661;SDS011;5379;51.034;7.006;2022-07-06T07:02:39;3.03;;;2.07;;
10661;SDS011;5379;51.034;7.006;2022-07-06T07:05:07;3.80;;;2.23;;
10661;SDS011;5379;51.034;7.006;2022-07-06T07:07:34;2.80;;;1.97;;
10661;SDS011;5379;51.034;7.006;2022-07-06T07:10:02;1.97;;;1.83;;
10661;SDS011;5379;51.034;7.006;2022-07-06T07:12:29;5.43;;;2.10;;
10661;SDS011;5379;51.034;7.006;2022-07-06T07:14:59;5.20;;;2.13;;
10661;SDS011;5379;51.034;7.006;2022-07-06T07:17:26;9.07;;;2.43;;
10661;SDS011;5379;51.034;7.006;2022-07-06T07:19:53;5.27;;;2.20;;
10661;SDS011;5379;51.034;7.006;2022-07-06T07:22:22;6.47;;;1.90;;
10661;SDS011;5379;51.034;7.006;2022-07-06T07:24:49;6.70;;;2.37;;
10661;SDS011;5379;51.034;7.006;2022-07-06T07:27:16;2.33;;;1.50;;
10661;SDS011;5379;51.034;7.006;2022-07-06T07:29:43;5.50;;;1.57;;
10661;SDS011;5379;51.034;7.006;2022-07-06T07:32:12;1.50;;;1.40;;
10661;SDS011;5379;51.034;7.006;2022-07-06T07:34:39;5.30;;;1.60;;
10661;SDS011;5379;51.034;7.006;2022-07-06T07:37:06;4.43;;;1.57;;
10661;SDS011;5379;51.034;7.006;2022-07-06T07:39:33;4.60;;;1.63;;
10661;SDS011;5379;51.034;7.006;2022-07-06T07:42:00;3.17;;;1.83;;
10661;SDS011;5379;51.034;7.006;2022-07-06T07:44:27;2.43;;;1.30;;
10661;SDS011;5379;51.034;7.006;2022-07-06T07:46:54;2.77;;;1.57;;
10661;SDS011;5379;51.034;7.006;2022-07-06T07:49:22;3.20;;;1.47;;
10661;SDS011;5379;51.034;7.006;2022-07-06T07:51:50;1.37;;;1.27;;
10661;SDS011;5379;51.034;7.006;2022-07-06T07:54:17;5.73;;;2.23;;
10661;SDS011;5379;51.034;7.006;2022-07-06T07:56:44;5.53;;;1.30;;
10661;SDS011;5379;51.034;7.006;2022-07-06T07:59:11;1.60;;;1.50;;
10661;SDS011;5379;51.034;7.006;2022-07-06T08:01:38;2.40;;;1.37;;
10661;SDS011;5379;51.034;7.006;2022-07-06T08:04:05;6.57;;;2.07;;
10661;SDS011;5379;51.034;7.006;2022-07-06T08:06:34;6.00;;;1.60;;
10661;SDS011;5379;51.034;7.006;2022-07-06T08:09:01;3.10;;;1.40;;
10661;SDS011;5379;51.034;7.006;2022-07-06T08:11:30;1.33;;;1.30;;
10661;SDS011;5379;51.034;7.006;2022-07-06T08:13:57;5.70;;;1.57;;
10661;SDS011;5379;51.034;7.006;2022-07-06T08:16:24;2.90;;;1.50;;
10661;SDS011;5379;51.034;7.006;2022-07-06T08:18:51;1.50;;;1.20;;
10661;SDS011;5379;51.034;7.006;2022-07-06T08:21:18;17.73;;;1.73;;
10661;SDS011;5379;51.034;7.006;2022-07-06T08:23:47;5.40;;;1.40;;
10661;SDS011;5379;51.034;7.006;2022-07-06T08:26:14;1.67;;;1.50;;
10661;SDS011;5379;51.034;7.006;2022-07-06T08:28:41;4.33;;;1.77;;
10661;SDS011;5379;51.034;7.006;2022-07-06T08:31:08;1.70;;;1.10;;
10661;SDS011;5379;51.034;7.006;2022-07-06T08:33:35;1.80;;;1.00;;
10661;SDS011;5379;51.034;7.006;2022-07-06T08:36:03;7.57;;;1.40;;
10661;SDS011;5379;51.034;7.006;2022-07-06T08:38:30;2.23;;;1.13;;
10661;SDS011;5379;51.034;7.006;2022-07-06T08:40:59;1.00;;;0.90;;
10661;SDS011;5379;51.034;7.006;2022-07-06T08:43:26;0.83;;;0.83;;
10661;SDS011;5379;51.034;7.006;2022-07-06T08:45:54;3.57;;;2.17;;
10661;SDS011;5379;51.034;7.006;2022-07-06T08:48:22;2.07;;;1.20;;
10661;SDS011;5379;51.034;7.006;2022-07-06T08:50:51;2.93;;;1.50;;
10661;SDS011;5379;51.034;7.006;2022-07-06T08:53:19;1.37;;;1.27;;
10661;SDS011;5379;51.034;7.006;2022-07-06T08:55:47;2.73;;;1.30;;
10661;SDS011;5379;51.034;7.006;2022-07-06T08:58:16;0.73;;;0.73;;
10661;SDS011;5379;51.034;7.006;2022-07-06T09:00:44;4.37;;;1.50;;
10661;SDS011;5379;51.034;7.006;2022-07-06T09:03:11;2.33;;;1.20;;
10661;SDS011;5379;51.034;7.006;2022-07-06T09:05:40;2.87;;;1.10;;
10661;SDS011;5379;51.034;7.006;2022-07-06T09:08:08;4.53;;;1.50;;
10661;SDS011;5379;51.034;7.006;2022-07-06T09:10:36;1.33;;;0.97;;
10661;SDS011;5379;51.034;7.006;2022-07-06T09:13:03;5.67;;;1.27;;
10661;SDS011;5379;51.034;7.006;2022-07-06T09:15:33;0.80;;;0.80;;
10661;SDS011;5379;51.034;7.006;2022-07-06T09:18:04;0.87;;;0.87;;
10661;SDS011;5379;51.034;7.006;2022-07-06T09:20:31;0.60;;;0.60;;
10661;SDS011;5379;51.034;7.006;2022-07-06T09:22:59;0.90;;;0.90;;
10661;SDS011;5379;51.034;7.006;2022-07-06T09:25:28;1.00;;;0.90;;
10661;SDS011;5379;51.034;7.006;2022-07-06T09:27:56;6.30;;;0.87;;
10661;SDS011;5379;51.034;7.006;2022-07-06T09:30:24;1.27;;;1.00;;
10661;SDS011;5379;51.034;7.006;2022-07-06T09:32:54;2.17;;;1.23;;
10661;SDS011;5379;51.034;7.006;2022-07-06T09:35:24;2.20;;;1.20;;
10661;SDS011;5379;51.034;7.006;2022-07-06T09:38:05;0.57;;;0.57;;
10661;SDS011;5379;51.034;7.006;2022-07-06T09:40:33;1.93;;;0.77;;
10661;SDS011;5379;51.034;7.006;2022-07-06T09:43:08;4.53;;;0.90;;
10661;SDS011;5379;51.034;7.006;2022-07-06T09:45:37;7.83;;;1.20;;
10661;SDS011;5379;51.034;7.006;2022-07-06T09:48:07;1.90;;;1.37;;
10661;SDS011;5379;51.034;7.006;2022-07-06T09:50:40;0.63;;;0.63;;
10661;SDS011;5379;51.034;7.006;2022-07-06T09:53:08;3.93;;;0.80;;
10661;SDS011;5379;51.034;7.006;2022-07-06T09:55:36;0.87;;;0.60;;
10661;SDS011;5379;51.034;7.006;2022-07-06T09:58:03;7.20;;;1.20;;
10661;SDS011;5379;51.034;7.006;2022-07-06T10:00:30;1.53;;;0.90;;
10661;SDS011;5379;51.034;7.006;2022-07-06T10:02:58;0.97;;;0.77;;
10661;SDS011;5379;51.034;7.006;2022-07-06T10:05:28;1.23;;;0.97;;
10661;SDS011;5379;51.034;7.006;2022-07-06T10:07:58;1.10;;;1.00;;
10661;SDS011;5379;51.034;7.006;2022-07-06T10:10:27;2.43;;;1.20;;
10661;SDS011;5379;51.034;7.006;2022-07-06T10:12:56;1.13;;;0.93;;
10661;SDS011;5379;51.034;7.006;2022-07-06T10:15:24;1.10;;;0.80;;
10661;SDS011;5379;51.034;7.006;2022-07-06T10:17:53;0.50;;;0.40;;
10661;SDS011;5379;51.034;7.006;2022-07-06T10:20:21;6.60;;;1.03;;
10661;SDS011;5379;51.034;7.006;2022-07-06T10:22:50;5.03;;;0.93;;
10661;SDS011;5379;51.034;7.006;2022-07-06T10:25:18;3.93;;;0.90;;
10661;SDS011;5379;51.034;7.006;2022-07-06T10:27:45;1.57;;;1.10;;
10661;SDS011;5379;51.034;7.006;2022-07-06T10:30:14;1.60;;;1.03;;
10661;SDS011;5379;51.034;7.006;2022-07-06T10:32:43;0.90;;;0.90;;
10661;SDS011;5379;51.034;7.006;2022-07-06T10:35:12;1.80;;;1.03;;
10661;SDS011;5379;51.034;7.006;2022-07-06T10:37:40;1.17;;;0.90;;
10661;SDS011;5379;51.034;7.006;2022-07-06T10:40:09;3.30;;;1.23;;
10661;SDS011;5379;51.034;7.006;2022-07-06T10:42:57;1.17;;;0.73;;
10661;SDS011;5379;51.034;7.006;2022-07-06T10:48:16;0.53;;;0.53;;
10661;SDS011;5379;51.034;7.006;2022-07-06T10:50:46;1.10;;;0.87;;
10661;SDS011;5379;51.034;7.006;2022-07-06T10:53:15;0.40;;;0.40;;
10661;SDS011;5379;51.034;7.006;2022-07-06T10:55:45;1.83;;;0.67;;
10661;SDS011;5379;51.034;7.006;2022-07-06T10:58:15;0.97;;;0.63;;
10661;SDS011;5379;51.034;7.006;2022-07-06T11:01:01;1.70;;;0.70;;
10661;SDS011;5379;51.034;7.006;2022-07-06T11:03:32;0.70;;;0.70;;
10661;SDS011;5379;51.034;7.006;2022-07-06T11:06:00;0.80;;;0.80;;
10661;SDS011;5379;51.034;7.006;2022-07-06T11:11:38;2.10;;;1.53;;
10661;SDS011;5379;51.034;7.006;2022-07-06T11:14:11;2.17;;;1.33;;
10661;SDS011;5379;51.034;7.006;2022-07-06T11:16:40;1.13;;;1.03;;
10661;SDS011;5379;51.034;7.006;2022-07-06T11:19:28;1.10;;;1.10;;
10661;SDS011;5379;51.034;7.006;2022-07-06T11:21:56;0.83;;;0.83;;
10661;SDS011;5379;51.034;7.006;2022-07-06T11:24:25;1.53;;;0.90;;
10661;SDS011;5379;51.034;7.006;2022-07-06T11:26:55;2.67;;;1.60;;
10661;SDS011;5379;51.034;7.006;2022-07-06T11:29:24;4.57;;;1.50;;
10661;SDS011;5379;51.034;7.006;2022-07-06T11:31:52;2.00;;;1.20;;
10661;SDS011;5379;51.034;7.006;2022-07-06T11:34:20;1.10;;;1.10;;
10661;SDS011;5379;51.034;7.006;2022-07-06T11:36:49;1.77;;;1.00;;
10661;SDS011;5379;51.034;7.006;2022-07-06T11:39:21;0.97;;;0.87;;
10661;SDS011;5379;51.034;7.006;2022-07-06T11:41:48;0.80;;;0.80;;
10661;SDS011;5379;51.034;7.006;2022-07-06T11:44:17;2.00;;;1.30;;
10661;SDS011;5379;51.034;7.006;2022-07-06T11:46:44;3.57;;;2.03;;
10661;SDS011;5379;51.034;7.006;2022-07-06T11:49:11;1.20;;;1.10;;
10661;SDS011;5379;51.034;7.006;2022-07-06T11:54:08;0.80;;;0.80;;
10661;SDS011;5379;51.034;7.006;2022-07-06T11:56:36;2.33;;;1.17;;
10661;SDS011;5379;51.034;7.006;2022-07-06T11:59:04;1.17;;;1.17;;
10661;SDS011;5379;51.034;7.006;2022-07-06T12:01:32;3.47;;;0.93;;
10661;SDS011;5379;51.034;7.006;2022-07-06T12:04:01;0.80;;;0.80;;
10661;SDS011;5379;51.034;7.006;2022-07-06T12:06:29;1.50;;;1.40;;
10661;SDS011;5379;51.034;7.006;2022-07-06T12:08:57;0.70;;;0.70;;
10661;SDS011;5379;51.034;7.006;2022-07-06T12:11:26;0.80;;;0.80;;
10661;SDS011;5379;51.034;7.006;2022-07-06T12:13:55;0.67;;;0.67;;
10661;SDS011;5379;51.034;7.006;2022-07-06T12:16:28;1.23;;;0.90;;
10661;SDS011;5379;51.034;7.006;2022-07-06T12:18:57;0.63;;;0.63;;
10661;SDS011;5379;51.034;7.006;2022-07-06T12:21:24;2.53;;;0.90;;
10661;SDS011;5379;51.034;7.006;2022-07-06T12:23:52;0.63;;;0.63;;
10661;SDS011;5379;51.034;7.006;2022-07-06T12:26:21;0.73;;;0.73;;
10661;SDS011;5379;51.034;7.006;2022-07-06T12:29:00;0.80;;;0.77;;
10661;SDS011;5379;51.034;7.006;2022-07-06T12:31:31;1.33;;;0.97;;
10661;SDS011;5379;51.034;7.006;2022-07-06T12:34:01;1.47;;;0.80;;
10661;SDS011;5379;51.034;7.006;2022-07-06T12:36:28;1.80;;;0.73;;
10661;SDS011;5379;51.034;7.006;2022-07-06T12:38:55;0.70;;;0.70;;
10661;SDS011;5379;51.034;7.006;2022-07-06T12:41:24;1.30;;;1.20;;
10661;SDS011;5379;51.034;7.006;2022-07-06T12:43:59;3.40;;;0.90;;
10661;SDS011;5379;51.034;7.006;2022-07-06T12:46:28;1.97;;;0.93;;
10661;SDS011;5379;51.034;7.006;2022-07-06T12:48:56;1.67;;;0.70;;
10661;SDS011;5379;51.034;7.006;2022-07-06T12:51:27;1.00;;;0.90;;
10661;SDS011;5379;51.034;7.006;2022-07-06T12:59:36;2.40;;;1.57;;
10661;SDS011;5379;51.034;7.006;2022-07-06T13:02:04;2.50;;;1.40;;
10661;SDS011;5379;51.034;7.006;2022-07-06T13:04:33;1.03;;;0.70;;
10661;SDS011;5379;51.034;7.006;2022-07-06T13:07:02;1.00;;;0.90;;
10661;SDS011;5379;51.034;7.006;2022-07-06T13:09:29;1.00;;;1.00;;
10661;SDS011;5379;51.034;7.006;2022-07-06T13:11:56;0.87;;;0.80;;
10661;SDS011;5379;51.034;7.006;2022-07-06T13:14:24;1.87;;;1.10;;
10661;SDS011;5379;51.034;7.006;2022-07-06T13:16:51;1.03;;;0.97;;
10661;SDS011;5379;51.034;7.006;2022-07-06T13:19:19;1.60;;;1.17;;
10661;SDS011;5379;51.034;7.006;2022-07-06T13:21:46;0.97;;;0.77;;
10661;SDS011;5379;51.034;7.006;2022-07-06T13:24:14;1.70;;;0.80;;
10661;SDS011;5379;51.034;7.006;2022-07-06T13:26:41;1.60;;;1.03;;
10661;SDS011;5379;51.034;7.006;2022-07-06T13:29:10;0.60;;;0.60;;
10661;SDS011;5379;51.034;7.006;2022-07-06T13:31:38;3.93;;;1.20;;
10661;SDS011;5379;51.034;7.006;2022-07-06T13:34:05;0.60;;;0.60;;
10661;SDS011;5379;51.034;7.006;2022-07-06T13:36:33;1.50;;;0.80;;
10661;SDS011;5379;51.034;7.006;2022-07-06T13:39:02;0.60;;;0.60;;
10661;SDS011;5379;51.034;7.006;2022-07-06T13:41:31;0.80;;;0.80;;
10661;SDS011;5379;51.034;7.006;2022-07-06T13:43:58;1.10;;;1.00;;
10661;SDS011;5379;51.034;7.006;2022-07-06T13:46:26;1.20;;;0.87;;
10661;SDS011;5379;51.034;7.006;2022-07-06T13:48:53;2.73;;;1.40;;
10661;SDS011;5379;51.034;7.006;2022-07-06T13:51:21;1.73;;;0.80;;
10661;SDS011;5379;51.034;7.006;2022-07-06T13:53:49;0.80;;;0.73;;
10661;SDS011;5379;51.034;7.006;2022-07-06T13:56:16;0.60;;;0.60;;
10661;SDS011;5379;51.034;7.006;2022-07-06T13:58:45;1.30;;;0.60;;
10661;SDS011;5379;51.034;7.006;2022-07-06T14:01:12;0.80;;;0.80;;
10661;SDS011;5379;51.034;7.006;2022-07-06T14:03:40;0.87;;;0.87;;
10661;SDS011;5379;51.034;7.006;2022-07-06T14:06:07;3.70;;;1.37;;
10661;SDS011;5379;51.034;7.006;2022-07-06T14:08:35;0.90;;;0.90;;
10661;SDS011;5379;51.034;7.006;2022-07-06T14:11:03;0.77;;;0.60;;
10661;SDS011;5379;51.034;7.006;2022-07-06T14:13:31;0.63;;;0.63;;
10661;SDS011;5379;51.034;7.006;2022-07-06T14:16:00;5.13;;;1.10;;
10661;SDS011;5379;51.034;7.006;2022-07-06T14:18:27;0.87;;;0.87;;
10661;SDS011;5379;51.034;7.006;2022-07-06T14:20:54;1.07;;;1.00;;
10661;SDS011;5379;51.034;7.006;2022-07-06T14:23:21;0.67;;;0.67;;
10661;SDS011;5379;51.034;7.006;2022-07-06T14:25:50;1.27;;;1.00;;
10661;SDS011;5379;51.034;7.006;2022-07-06T14:28:17;0.80;;;0.70;;
10661;SDS011;5379;51.034;7.006;2022-07-06T14:30:45;2.07;;;1.10;;
10661;SDS011;5379;51.034;7.006;2022-07-06T14:33:14;0.70;;;0.70;;
10661;SDS011;5379;51.034;7.006;2022-07-06T14:35:42;1.90;;;1.20;;
10661;SDS011;5379;51.034;7.006;2022-07-06T14:38:11;1.80;;;1.70;;
10661;SDS011;5379;51.034;7.006;2022-07-06T14:40:39;1.33;;;0.87;;
10661;SDS011;5379;51.034;7.006;2022-07-06T14:43:06;4.47;;;0.80;;
10661;SDS011;5379;51.034;7.006;2022-07-06T14:45:33;3.60;;;1.10;;
10661;SDS011;5379;51.034;7.006;2022-07-06T14:48:00;0.60;;;0.60;;
10661;SDS011;5379;51.034;7.006;2022-07-06T14:50:29;1.97;;;0.87;;
10661;SDS011;5379;51.034;7.006;2022-07-06T14:52:56;0.80;;;0.80;;
10661;SDS011;5379;51.034;7.006;2022-07-06T14:55:23;0.50;;;0.50;;
10661;SDS011;5379;51.034;7.006;2022-07-06T14:57:50;0.50;;;0.50;;
10661;SDS011;5379;51.034;7.006;2022-07-06T15:00:20;0.93;;;0.73;;
10661;SDS011;5379;51.034;7.006;2022-07-06T15:02:47;1.80;;;1.00;;
10661;SDS011;5379;51.034;7.006;2022-07-06T15:05:14;3.40;;;0.80;;
10661;SDS011;5379;51.034;7.006;2022-07-06T15:07:43;0.67;;;0.67;;
10661;SDS011;5379;51.034;7.006;2022-07-06T15:10:10;2.63;;;0.90;;
10661;SDS011;5379;51.034;7.006;2022-07-06T15:12:37;0.50;;;0.50;;
10661;SDS011;5379;51.034;7.006;2022-07-06T15:15:05;2.50;;;0.83;;
10661;SDS011;5379;51.034;7.006;2022-07-06T15:17:32;0.97;;;0.60;;
10661;SDS011;5379;51.034;7.006;2022-07-06T15:19:59;0.83;;;0.53;;